createdAt,value
2019-03-21T00:00:26.224Z,88.40
2019-03-21T00:03:03.176Z,88.90
2019-03-21T00:05:41.294Z,89.50
2019-03-21T00:08:19.379Z,89.40
2019-03-21T00:11:42.056Z,90.00
2019-03-21T00:14:54.573Z,89.60
2019-03-21T00:17:43.500Z,89.50
2019-03-21T00:20:21.349Z,87.60
2019-03-21T00:22:58.170Z,88.40
2019-03-21T00:25:36.613Z,87.90
2019-03-21T00:28:13.710Z,87.70
2019-03-21T00:30:50.904Z,87.30
2019-03-21T00:33:27.819Z,86.40
2019-03-21T00:36:05.658Z,86.30
2019-03-21T00:38:43.560Z,85.50
2019-03-21T00:41:21.831Z,85.70
2019-03-21T00:43:58.925Z,86.20
2019-03-21T00:46:36.131Z,85.00
2019-03-21T00:49:14.152Z,85.20
2019-03-21T00:51:51.417Z,85.20
2019-03-21T00:54:28.418Z,84.70
2019-03-21T00:57:05.665Z,84.50
2019-03-21T00:59:42.566Z,83.90
2019-03-21T01:02:19.586Z,83.40
2019-03-21T01:04:57.119Z,83.80
2019-03-21T01:07:33.826Z,82.90
2019-03-21T01:10:12.763Z,82.90
2019-03-21T01:12:49.690Z,81.90
2019-03-21T01:15:27.251Z,82.20
2019-03-21T01:18:04.283Z,81.10
2019-03-21T01:20:40.999Z,80.80
2019-03-21T01:23:18.213Z,81.00
2019-03-21T01:25:56.255Z,80.80
2019-03-21T01:28:33.324Z,80.80
2019-03-21T01:31:12.143Z,80.50
2019-03-21T01:33:49.409Z,79.50
2019-03-21T01:36:27.466Z,79.40
2019-03-21T01:39:04.904Z,80.10
2019-03-21T01:41:41.922Z,78.10
2019-03-21T01:44:19.081Z,77.40
2019-03-21T01:46:56.138Z,77.40
2019-03-21T01:49:33.017Z,77.20
2019-03-21T01:52:10.039Z,77.50
2019-03-21T01:54:47.187Z,77.70
2019-03-21T01:57:24.478Z,76.30
2019-03-21T02:00:01.340Z,76.30
2019-03-21T02:02:38.308Z,76.90
2019-03-21T02:05:15.765Z,75.90
2019-03-21T02:07:52.800Z,74.90
2019-03-21T02:10:29.770Z,75.10
2019-03-21T02:13:07.076Z,75.10
2019-03-21T02:15:44.039Z,74.10
2019-03-21T02:18:21.021Z,73.30
2019-03-21T02:20:58.106Z,72.90
2019-03-21T02:23:37.502Z,73.50
2019-03-21T02:26:14.422Z,72.30
2019-03-21T02:28:51.518Z,72.20
2019-03-21T02:31:28.078Z,70.80
2019-03-21T02:34:04.855Z,69.50
2019-03-21T02:36:42.042Z,69.30
2019-03-21T02:39:18.689Z,68.40
2019-03-21T02:41:55.981Z,68.10
2019-03-21T02:44:33.151Z,67.40
2019-03-21T02:47:10.308Z,67.90
2019-03-21T02:49:47.023Z,67.30
2019-03-21T02:52:24.047Z,65.40
2019-03-21T02:55:00.958Z,66.70
2019-03-21T02:57:38.830Z,66.30
2019-03-21T03:00:18.662Z,64.80
2019-03-21T03:02:56.998Z,65.10
2019-03-21T03:05:35.738Z,64.50
2019-03-21T03:08:16.404Z,63.80
2019-03-21T03:10:55.513Z,63.30
2019-03-21T03:13:33.123Z,63.40
2019-03-21T03:16:10.399Z,63.10
2019-03-21T03:18:47.720Z,62.00
2019-03-21T03:21:25.269Z,63.40
2019-03-21T03:24:02.206Z,61.60
2019-03-21T03:26:39.436Z,61.40
2019-03-21T03:29:16.450Z,62.00
2019-03-21T03:31:56.613Z,59.80
2019-03-21T03:34:33.660Z,61.80
2019-03-21T03:37:10.444Z,60.10
2019-03-21T03:39:47.815Z,58.60
2019-03-21T03:42:24.766Z,59.90
2019-03-21T03:45:01.844Z,59.90
2019-03-21T03:47:38.940Z,59.10
2019-03-21T03:50:16.682Z,58.80
2019-03-21T03:52:53.877Z,58.00
2019-03-21T03:55:30.863Z,57.90
2019-03-21T03:58:09.353Z,56.40
2019-03-21T04:00:46.101Z,56.30
2019-03-21T04:03:23.370Z,56.30
2019-03-21T04:06:01.498Z,54.80
2019-03-21T04:08:38.463Z,56.00
2019-03-21T04:11:15.764Z,55.60
2019-03-21T04:13:52.839Z,56.00
2019-03-21T04:16:30.254Z,56.30
2019-03-21T04:19:07.017Z,55.10
2019-03-21T04:21:43.887Z,53.60
2019-03-21T04:24:21.033Z,53.10
2019-03-21T04:26:58.061Z,52.50
2019-03-21T04:29:34.851Z,52.60
2019-03-21T04:32:12.449Z,52.70
2019-03-21T04:34:49.233Z,53.10
2019-03-21T04:37:25.836Z,49.40
2019-03-21T04:40:20.693Z,49.70
2019-03-21T04:43:04.354Z,48.10
2019-03-21T04:45:41.553Z,47.80
2019-03-21T04:48:19.672Z,50.80
2019-03-21T04:50:56.682Z,50.20
2019-03-21T04:53:33.822Z,48.00
2019-03-21T04:56:10.394Z,48.10
2019-03-21T04:58:47.308Z,49.00
2019-03-21T05:01:23.846Z,47.40
2019-03-21T05:04:00.848Z,45.40
2019-03-21T05:06:37.848Z,46.50
2019-03-21T05:09:18.700Z,46.80
2019-03-21T05:11:55.483Z,46.10
2019-03-21T05:14:34.925Z,45.40
2019-03-21T05:17:13.316Z,45.30
2019-03-21T05:19:50.634Z,45.90
2019-03-21T05:22:28.964Z,45.80
2019-03-21T05:25:06.203Z,47.50
2019-03-21T05:27:44.903Z,46.50
2019-03-21T05:30:24.874Z,45.80
2019-03-21T05:33:01.961Z,46.00
2019-03-21T05:35:39.918Z,45.30
2019-03-21T05:38:17.487Z,44.50
2019-03-21T05:40:54.125Z,45.20
2019-03-21T05:43:34.148Z,43.60
2019-03-21T05:46:11.007Z,43.00
2019-03-21T05:48:47.989Z,43.10
2019-03-21T05:51:24.884Z,42.40
2019-03-21T05:54:02.072Z,41.90
2019-03-21T05:56:39.374Z,42.10
2019-03-21T05:59:16.485Z,42.10
2019-03-21T06:01:53.433Z,40.60
2019-03-21T06:04:30.211Z,42.20
2019-03-21T06:07:18.266Z,40.90
2019-03-21T06:09:55.248Z,41.90
2019-03-21T06:12:32.271Z,42.30
2019-03-21T06:15:09.578Z,42.70
2019-03-21T06:17:47.960Z,41.70
2019-03-21T06:21:00.234Z,43.30
2019-03-21T06:23:57.365Z,42.20
2019-03-21T06:26:47.295Z,41.70
2019-03-21T06:29:24.245Z,41.10
2019-03-21T06:32:01.387Z,39.80
2019-03-21T06:34:38.519Z,40.70
2019-03-21T06:37:15.528Z,41.50
2019-03-21T06:39:52.509Z,41.60
2019-03-21T06:42:29.381Z,40.50
2019-03-21T06:45:06.429Z,41.50
2019-03-21T06:47:43.239Z,41.10
2019-03-21T06:50:21.313Z,40.90
2019-03-21T06:52:58.364Z,39.10
2019-03-21T06:55:35.981Z,38.90
2019-03-21T06:58:14.221Z,40.50
2019-03-21T07:00:51.269Z,40.00
2019-03-21T07:03:28.203Z,38.80
2019-03-21T07:06:05.365Z,41.30
2019-03-21T07:08:42.717Z,39.30
2019-03-21T07:11:19.582Z,43.20
2019-03-21T07:13:56.459Z,40.10
2019-03-21T07:16:33.553Z,41.00
2019-03-21T07:19:10.940Z,39.40
2019-03-21T07:21:48.018Z,40.40
2019-03-21T07:24:25.342Z,40.30
2019-03-21T07:27:02.280Z,41.10
2019-03-21T07:29:39.536Z,40.00
2019-03-21T07:32:16.835Z,39.20
2019-03-21T07:34:53.870Z,38.80
2019-03-21T07:37:31.039Z,38.60
2019-03-21T07:40:09.446Z,39.20
2019-03-21T07:42:46.354Z,38.40
2019-03-21T07:45:24.341Z,38.90
2019-03-21T07:48:01.264Z,38.30
2019-03-21T07:50:37.967Z,40.60
2019-03-21T07:53:15.007Z,38.50
2019-03-21T07:55:51.834Z,38.80
2019-03-21T07:58:28.661Z,39.20
2019-03-21T08:01:07.097Z,38.80
2019-03-21T08:03:44.265Z,39.10
2019-03-21T08:06:21.279Z,39.50
2019-03-21T08:08:58.183Z,38.80
2019-03-21T08:11:35.241Z,38.30
2019-03-21T08:14:12.126Z,39.30
2019-03-21T08:16:49.310Z,39.30
2019-03-21T08:19:26.373Z,38.30
2019-03-21T08:22:03.881Z,37.80
2019-03-21T08:24:40.897Z,37.70
2019-03-21T08:27:17.941Z,37.80
2019-03-21T08:29:55.607Z,37.30
2019-03-21T08:32:32.984Z,38.50
2019-03-21T08:35:10.897Z,37.30
2019-03-21T08:37:47.874Z,36.90
2019-03-21T08:40:27.740Z,37.50
2019-03-21T08:43:05.688Z,36.50
2019-03-21T08:45:42.771Z,36.70
2019-03-21T08:48:19.811Z,36.90
2019-03-21T08:51:07.328Z,36.40
2019-03-21T08:53:35.605Z,36.70
2019-03-21T08:56:14.076Z,37.80
2019-03-21T08:58:51.192Z,37.70
2019-03-21T09:01:28.302Z,37.30
2019-03-21T09:04:05.171Z,37.00
2019-03-21T09:06:42.387Z,36.90
2019-03-21T09:09:19.621Z,38.40
2019-03-21T09:11:56.598Z,38.20
2019-03-21T09:14:33.479Z,37.70
2019-03-21T09:17:08.869Z,38.90
2019-03-21T09:19:46.313Z,38.80
2019-03-21T09:22:24.031Z,38.00
2019-03-21T09:25:00.711Z,37.80
2019-03-21T09:27:37.442Z,38.00
2019-03-21T09:30:14.786Z,38.60
2019-03-21T09:32:51.816Z,38.50
2019-03-21T09:35:29.051Z,39.00
2019-03-21T09:38:06.767Z,39.00
2019-03-21T09:40:43.522Z,38.50
2019-03-21T09:43:20.602Z,39.40
2019-03-21T09:45:57.682Z,38.20
2019-03-21T09:48:34.510Z,37.50
2019-03-21T09:51:11.811Z,38.40
2019-03-21T09:53:48.647Z,38.30
2019-03-21T09:56:25.720Z,39.00
2019-03-21T09:59:03.885Z,40.40
2019-03-21T10:01:41.091Z,40.00
2019-03-21T10:04:18.310Z,39.60
2019-03-21T10:06:55.323Z,39.20
2019-03-21T10:09:32.326Z,39.70
2019-03-21T10:12:09.510Z,39.20
2019-03-21T10:14:46.528Z,39.30
2019-03-21T10:17:24.095Z,39.00
2019-03-21T10:20:01.164Z,41.30
2019-03-21T10:22:38.175Z,43.40
2019-03-21T10:25:15.046Z,41.10
2019-03-21T10:27:51.971Z,41.50
2019-03-21T10:30:42.464Z,42.00
2019-03-21T10:33:21.165Z,44.60
2019-03-21T10:35:58.754Z,44.80
2019-03-21T10:38:35.768Z,46.50
2019-03-21T10:41:12.967Z,43.50
2019-03-21T10:43:49.925Z,43.60
2019-03-21T10:46:27.562Z,45.10
2019-03-21T10:49:04.345Z,42.60
2019-03-21T10:51:41.494Z,43.80
2019-03-21T10:54:18.585Z,43.40
2019-03-21T10:56:55.544Z,44.60
2019-03-21T10:59:32.638Z,46.00
2019-03-21T11:02:09.753Z,49.40
2019-03-21T11:04:46.564Z,51.40
2019-03-21T11:07:18.816Z,52.10
2019-03-21T11:09:56.051Z,53.10
2019-03-21T11:12:32.900Z,53.00
2019-03-21T11:15:10.339Z,53.50
2019-03-21T11:17:47.329Z,54.10
2019-03-21T11:20:37.918Z,55.10
2019-03-21T11:23:15.111Z,53.30
2019-03-21T11:25:52.306Z,51.40
2019-03-21T11:28:29.384Z,52.90
2019-03-21T11:31:06.350Z,55.70
2019-03-21T11:33:43.105Z,55.50
2019-03-21T11:36:20.283Z,55.50
2019-03-21T11:38:57.141Z,57.30
2019-03-21T11:41:33.895Z,57.50
2019-03-21T11:44:11.251Z,56.40
2019-03-21T11:46:48.738Z,54.70
2019-03-21T11:49:25.413Z,58.00
2019-03-21T11:52:02.429Z,54.60
2019-03-21T11:54:46.449Z,57.10
2019-03-21T11:57:23.407Z,58.10
2019-03-21T12:00:00.654Z,60.10
2019-03-21T12:02:37.514Z,59.20
2019-03-21T12:05:15.625Z,58.30
2019-03-21T12:07:52.852Z,60.70
2019-03-21T12:10:29.612Z,60.70
2019-03-21T12:13:06.917Z,62.10
2019-03-21T12:15:46.294Z,61.10
2019-03-21T12:18:23.708Z,63.90
2019-03-21T12:21:00.246Z,63.50
2019-03-21T12:23:37.261Z,60.00
2019-03-21T12:26:13.955Z,62.50
2019-03-21T12:28:51.001Z,62.30
2019-03-21T12:31:30.068Z,66.10
2019-03-21T12:34:06.604Z,63.30
2019-03-21T12:36:43.894Z,64.10
2019-03-21T12:39:20.963Z,63.20
2019-03-21T12:41:57.726Z,60.60
2019-03-21T12:44:35.435Z,63.60
2019-03-21T12:47:13.074Z,58.90
2019-03-21T12:49:50.331Z,61.30
2019-03-21T12:52:27.560Z,65.10
2019-03-21T12:55:04.605Z,63.50
2019-03-21T12:57:41.616Z,62.10
2019-03-21T13:00:22.155Z,62.80
2019-03-21T13:02:59.262Z,62.20
2019-03-21T13:05:36.354Z,62.10
2019-03-21T13:08:13.246Z,65.60
2019-03-21T13:10:50.137Z,61.70
2019-03-21T13:13:27.589Z,63.90
2019-03-21T13:16:04.494Z,60.60
2019-03-21T13:18:41.602Z,64.80
2019-03-21T13:21:18.731Z,64.20
2019-03-21T13:23:56.999Z,64.60
2019-03-21T13:26:33.939Z,64.00
2019-03-21T13:29:11.698Z,61.90
2019-03-21T13:31:48.882Z,66.30
2019-03-21T13:34:26.102Z,64.60
2019-03-21T13:37:03.152Z,65.60
2019-03-21T13:39:39.830Z,64.10
2019-03-21T13:42:16.955Z,66.00
2019-03-21T13:44:53.577Z,67.60
2019-03-21T13:47:30.692Z,63.40
2019-03-21T13:50:07.591Z,67.70
2019-03-21T13:52:45.796Z,68.40
2019-03-21T13:55:22.135Z,67.60
2019-03-21T13:57:59.712Z,65.70
2019-03-21T14:00:36.272Z,66.30
2019-03-21T14:03:24.330Z,61.70
2019-03-21T14:05:51.469Z,64.70
2019-03-21T14:08:29.279Z,64.70
2019-03-21T14:11:06.254Z,61.80
2019-03-21T14:13:43.981Z,61.10
2019-03-21T14:16:20.580Z,58.70
2019-03-21T14:18:57.421Z,60.10
2019-03-21T14:21:34.283Z,60.50
2019-03-21T14:24:11.550Z,59.70
2019-03-21T14:26:48.408Z,60.80
2019-03-21T14:29:25.135Z,62.60
2019-03-21T14:32:01.928Z,61.60
2019-03-21T14:34:38.948Z,61.90
2019-03-21T14:37:17.702Z,65.90
2019-03-21T14:39:54.542Z,63.30
2019-03-21T14:42:31.175Z,66.30
2019-03-21T14:45:08.763Z,61.10
2019-03-21T14:47:45.917Z,61.60
2019-03-21T14:50:22.875Z,62.30
2019-03-21T14:53:00.809Z,62.20
2019-03-21T14:55:47.149Z,65.10
2019-03-21T14:58:16.225Z,64.60
2019-03-21T15:00:53.497Z,62.00
2019-03-21T15:03:30.808Z,61.30
2019-03-21T15:06:08.091Z,61.20
2019-03-21T15:08:45.276Z,62.00
2019-03-21T15:11:23.119Z,57.50
2019-03-21T15:14:00.109Z,59.20
2019-03-21T15:16:37.412Z,59.80
2019-03-21T15:19:15.697Z,58.40
2019-03-21T15:21:52.749Z,58.90
2019-03-21T15:24:29.731Z,58.80
2019-03-21T15:27:07.099Z,58.80
2019-03-21T15:29:44.100Z,62.20
2019-03-21T15:32:21.010Z,59.10
2019-03-21T15:34:58.138Z,63.10
2019-03-21T15:37:35.276Z,62.10
2019-03-21T15:40:15.091Z,60.30
2019-03-21T15:42:52.007Z,60.40
2019-03-21T15:45:28.631Z,60.00
2019-03-21T15:48:09.941Z,59.60
2019-03-21T15:50:46.036Z,59.90
2019-03-21T15:53:22.799Z,59.70
2019-03-21T15:55:59.821Z,61.80
2019-03-21T15:58:36.682Z,62.90
2019-03-21T16:01:13.332Z,60.80
2019-03-21T16:03:50.718Z,59.80
2019-03-21T16:06:28.069Z,60.00
2019-03-21T16:09:04.831Z,60.20
2019-03-21T16:11:42.110Z,59.30
2019-03-21T16:14:18.678Z,60.90
2019-03-21T16:16:56.231Z,57.90
2019-03-21T16:19:33.339Z,58.90
2019-03-21T16:22:10.107Z,58.90
2019-03-21T16:24:47.462Z,59.80
2019-03-21T16:27:24.331Z,58.40
2019-03-21T16:30:01.679Z,59.10
2019-03-21T16:32:39.922Z,59.40
2019-03-21T16:35:16.982Z,61.30
2019-03-21T16:37:54.070Z,62.90
2019-03-21T16:40:30.658Z,64.30
2019-03-21T16:43:07.792Z,65.00
2019-03-21T16:45:45.003Z,68.20
2019-03-21T16:48:21.961Z,69.20
2019-03-21T16:50:59.242Z,69.60
2019-03-21T16:53:35.958Z,69.10
2019-03-21T16:56:13.335Z,70.90
2019-03-21T16:58:50.091Z,71.30
2019-03-21T17:01:27.277Z,71.00
2019-03-21T17:04:04.484Z,68.80
2019-03-21T17:06:41.839Z,69.30
2019-03-21T17:09:19.181Z,68.20
2019-03-21T17:11:55.865Z,71.50
2019-03-21T17:14:32.821Z,71.70
2019-03-21T17:17:10.016Z,71.00
2019-03-21T17:19:46.739Z,72.60
2019-03-21T17:22:24.678Z,73.40
2019-03-21T17:25:01.891Z,73.30
2019-03-21T17:27:39.866Z,73.60
2019-03-21T17:30:16.910Z,74.00
2019-03-21T17:32:54.075Z,74.50
2019-03-21T17:35:31.278Z,75.50
2019-03-21T17:38:09.575Z,73.80
2019-03-21T17:40:46.399Z,74.60
2019-03-21T17:43:29.436Z,74.60
2019-03-21T17:46:07.654Z,74.50
2019-03-21T17:48:44.316Z,75.50
2019-03-21T17:51:21.174Z,75.40
2019-03-21T17:53:58.283Z,75.20
2019-03-21T17:56:35.787Z,76.20
2019-03-21T17:59:13.071Z,77.00
2019-03-21T18:01:50.059Z,75.80
2019-03-21T18:04:27.980Z,76.10
2019-03-21T18:07:05.183Z,76.10
2019-03-21T18:09:42.309Z,76.30
2019-03-21T18:12:19.115Z,75.90
2019-03-21T18:14:56.299Z,77.30
2019-03-21T18:17:33.348Z,77.90
2019-03-21T18:20:10.741Z,75.90
2019-03-21T18:22:48.145Z,75.30
2019-03-21T18:25:24.950Z,76.00
2019-03-21T18:28:02.627Z,74.70
2019-03-21T18:30:40.281Z,74.80
2019-03-21T18:33:19.350Z,76.80
2019-03-21T18:35:56.538Z,77.10
2019-03-21T18:38:33.876Z,75.20
2019-03-21T18:41:10.546Z,75.80
2019-03-21T18:43:47.634Z,77.50
2019-03-21T18:46:24.511Z,77.50
2019-03-21T18:49:01.496Z,77.80
2019-03-21T18:51:39.863Z,78.00
2019-03-21T18:54:17.056Z,78.90
2019-03-21T18:56:54.274Z,79.50
2019-03-21T18:59:37.566Z,80.10
2019-03-21T19:02:14.446Z,80.80
2019-03-21T19:04:51.484Z,81.20
2019-03-21T19:07:28.602Z,80.40
2019-03-21T19:10:06.043Z,81.60
2019-03-21T19:12:43.169Z,82.60
2019-03-21T19:15:20.205Z,82.50
2019-03-21T19:17:56.925Z,82.80
2019-03-21T19:20:33.952Z,81.50
2019-03-21T19:23:11.466Z,82.20
2019-03-21T19:25:48.156Z,82.00
2019-03-21T19:28:25.377Z,82.20
2019-03-21T19:31:02.595Z,83.20
2019-03-21T19:33:39.619Z,83.80
2019-03-21T19:36:16.635Z,82.80
2019-03-21T19:38:53.508Z,83.20
2019-03-21T19:41:31.515Z,82.00
2019-03-21T19:44:08.383Z,82.60
2019-03-21T19:46:45.578Z,82.20
2019-03-21T19:49:22.350Z,83.80
2019-03-21T19:51:59.617Z,82.50
2019-03-21T19:54:36.488Z,81.70
2019-03-21T19:57:13.414Z,83.30
2019-03-21T19:59:50.135Z,83.50
2019-03-21T20:02:27.492Z,83.50
2019-03-21T20:05:04.559Z,82.70
2019-03-21T20:07:42.098Z,83.00
2019-03-21T20:10:19.836Z,84.40
2019-03-21T20:12:56.966Z,83.90
2019-03-21T20:15:34.477Z,83.70
2019-03-21T20:18:11.342Z,84.20
2019-03-21T20:20:49.728Z,83.90
2019-03-21T20:23:26.928Z,84.40
2019-03-21T20:26:04.248Z,86.10
2019-03-21T20:28:41.458Z,85.40
2019-03-21T20:31:19.425Z,85.50
2019-03-21T20:33:56.463Z,85.10
2019-03-21T20:36:33.425Z,85.10
2019-03-21T20:39:11.414Z,85.30
2019-03-21T20:41:48.653Z,85.40
2019-03-21T20:44:27.301Z,85.60
2019-03-21T20:47:04.529Z,85.40
2019-03-21T20:49:41.596Z,85.70
2019-03-21T20:52:19.058Z,87.20
2019-03-21T20:54:56.004Z,87.50
2019-03-21T20:57:33.135Z,86.90
2019-03-21T21:00:10.742Z,86.50
2019-03-21T21:02:48.159Z,86.30
2019-03-21T21:05:25.201Z,86.90
2019-03-21T21:08:03.075Z,87.20
2019-03-21T21:10:40.128Z,86.60
2019-03-21T21:13:16.829Z,86.70
2019-03-21T21:15:53.852Z,86.70
2019-03-21T21:18:31.132Z,86.80
2019-03-21T21:21:08.330Z,87.40
2019-03-21T21:23:46.158Z,87.90
2019-03-21T21:26:22.808Z,88.90
2019-03-21T21:29:00.386Z,89.40
2019-03-21T21:31:37.311Z,87.10
2019-03-21T21:34:13.982Z,85.90
2019-03-21T21:36:51.491Z,84.50
2019-03-21T21:39:28.527Z,83.50
2019-03-21T21:42:07.228Z,82.90
2019-03-21T21:44:43.863Z,83.60
2019-03-21T21:47:20.663Z,82.10
2019-03-21T21:49:57.852Z,81.30
2019-03-21T21:52:42.029Z,80.30
2019-03-21T21:55:13.915Z,80.90
2019-03-21T21:57:50.819Z,80.20
2019-03-21T22:00:27.993Z,80.10
2019-03-21T22:03:05.344Z,79.70
2019-03-21T22:05:42.136Z,79.10
2019-03-21T22:08:19.567Z,78.70
2019-03-21T22:10:57.289Z,78.00
2019-03-21T22:13:34.087Z,79.10
2019-03-21T22:16:11.245Z,80.40
2019-03-21T22:18:48.238Z,80.80
2019-03-21T22:21:25.337Z,80.20
2019-03-21T22:24:02.156Z,80.30
2019-03-21T22:26:39.098Z,81.80
2019-03-21T22:29:16.175Z,79.70
2019-03-21T22:31:53.697Z,78.50
2019-03-21T22:34:32.304Z,78.00
2019-03-21T22:37:09.205Z,77.90
2019-03-21T22:39:46.006Z,79.00
2019-03-21T22:42:23.068Z,79.40
2019-03-21T22:45:00.351Z,80.60
2019-03-21T22:47:36.838Z,80.80
2019-03-21T22:50:15.800Z,81.90
2019-03-21T22:52:52.773Z,82.20
2019-03-21T22:55:30.031Z,82.40
2019-03-21T22:58:06.964Z,82.20
2019-03-21T23:00:45.776Z,82.40
2019-03-21T23:03:23.500Z,81.70
2019-03-21T23:06:01.213Z,80.60
2019-03-21T23:08:38.134Z,80.90
2019-03-21T23:11:15.128Z,82.00
2019-03-21T23:13:54.348Z,81.80
2019-03-21T23:16:32.229Z,82.40
2019-03-21T23:19:09.123Z,81.80
2019-03-21T23:21:45.621Z,82.00
2019-03-21T23:24:22.997Z,81.70
2019-03-21T23:27:00.167Z,82.00
2019-03-21T23:29:36.856Z,81.70
2019-03-21T23:32:13.696Z,82.10
2019-03-21T23:34:51.702Z,81.90
2019-03-21T23:37:29.827Z,80.80
2019-03-21T23:40:06.663Z,81.50
2019-03-21T23:42:43.529Z,82.20
2019-03-21T23:45:20.508Z,82.40
2019-03-21T23:47:57.613Z,82.30
2019-03-21T23:50:35.450Z,83.60
2019-03-21T23:53:12.230Z,85.20
2019-03-21T23:55:49.216Z,83.70
2019-03-21T23:58:27.397Z,83.20
